09:37
Airports
Links
Donate
Help keep this website running!
PayPal
Bitcoin
METAR
PHNL 200853Z 35003KT 10SM FEW045 21/16 A2996 RMK AO2 SLP144 T02060161 53007 $
Current Weather Conditions at PHNL
VFR 08:53:00 20-02-18
Automated station
Altimeter:29.96 hg
Temp:20.6°c 68°f
Dew point:16.1°c 61°f
Wind:3 knots, 3.5 mph, 2 m/s, from 350°
Visibility:10.0 statute miles
4500(FEW) A few
Past METAR reports
VFR 07:53:00 20-02-18
Automated station
Altimeter:29.95 hg
Temp:21.7°c 70°f
Dew point:16.7°c 61°f
Wind:4 knots, 4.6 mph, 2 m/s, from 30°
Visibility:10.0 statute miles
4500(FEW) A few
PHNL 200753Z 03004KT 10SM FEW045 22/17 A2995 RMK AO2 SLP141 T02170167 $
VFR 06:53:00 20-02-18
Automated station
Altimeter:29.94 hg
Temp:22.2°c 72°f
Dew point:17.2°c 63°f
Wind:3 knots, 3.5 mph, 2 m/s, from 30°
Visibility:10.0 statute miles
4500(SCT) Scattered
PHNL 200653Z 03003KT 10SM SCT045 22/17 A2994 RMK AO2 SLP138 T02220172 $
VFR 05:53:00 20-02-18
Automated station
Altimeter:29.94 hg
Temp:22.8°c 72°f
Dew point:16.7°c 61°f
Wind:3 knots, 3.5 mph, 2 m/s, from 280°
Visibility:10.0 statute miles
4500(FEW) A few
PHNL 200553Z 28003KT 10SM FEW045 23/17 A2994 RMK AO2 SLP137 T02280167 10261 20228 53011 $
VFR 04:53:00 20-02-18
Automated station
Altimeter:29.92 hg
Temp:23.9°c 73°f
Dew point:17.2°c 63°f
Wind:3 knots, 3.5 mph, 2 m/s, from 240°
Visibility:10.0 statute miles
4500(FEW) A few
3700(FEW) A few
PHNL 200453Z 24003KT 10SM FEW037 FEW045 24/17 A2992 RMK AO2 SLP132 T02390172 $
VFR 03:53:00 20-02-18
Automated station
Altimeter:29.91 hg
Temp:24.4°c 75°f
Dew point:17.2°c 63°f
Wind:5 knots, 5.8 mph, 3 m/s, from 230°
Visibility:10.0 statute miles
4500(SCT) Scattered
3900(FEW) A few
3200(FEW) A few
PHNL 200353Z 23005KT 10SM FEW032 FEW039 SCT045 24/17 A2991 RMK AO2 SLP129 T02440172 $
TAF
PHNL 200905Z 2009/2112 36004KT P6SM FEW030 SCT050 FM202000 17008KT P6SM FEW030 SCT050 FM210600 02004KT P6SM FEW030 SCT050
Forecast at PHNL
09:00 20-02-18 to 20:00 20-02-18
Wind:4 Knots from 360°
Visibility:6.21 statute miles
3000FEW A few
5000SCT Scattered
FM 20:00 20-02-18 to 06:00 21-02-18
Wind:8 Knots from 170°
Visibility:6.21 statute miles
3000FEW A few
5000SCT Scattered
FM 06:00 21-02-18 to 12:00 21-02-18
Wind:4 Knots from 20°
Visibility:6.21 statute miles
3000FEW A few
5000SCT Scattered